This is the latest recevied weather packets stored in our database for station/object DG3RAP-11. If no packets are shown the sender has not sent any weather packets the latest 10 day(s).
| Time | Temp. | Humidity | Pressure | Rain* | Wind** | Luminosity | Snow |
|---|---|---|---|---|---|---|---|
| 1777630143 | 15.56° C | 39% | 1027.3 hPa | 0 mm | - | - | - |
| 1777629603 | 16.11° C | 37% | 1027.6 hPa | 0 mm | - | - | - |
| 1777629243 | 16.67° C | 38% | 1027.7 hPa | 0 mm | - | - | - |
| 1777628163 | 15.56° C | 39% | 1027.8 hPa | 0 mm | - | - | - |
| 1777627623 | 15.56° C | 40% | 1027.9 hPa | 0 mm | - | - | - |
| 1777627083 | 15.56° C | 38% | 1027.9 hPa | 0 mm | - | - | - |
| 1777626543 | 15° C | 40% | 1027.9 hPa | 0 mm | - | - | - |
| 1777626003 | 15° C | 39% | 1028 hPa | 0 mm | - | - | - |
| 1777625643 | 14.44° C | 40% | 1027.7 hPa | 0 mm | - | - | - |
| 1777625104 | 14.44° C | 38% | 1028 hPa | 0 mm | - | - | - |
| 1777624563 | 14.44° C | 40% | 1028 hPa | 0 mm | - | - | - |
| 1777624023 | 13.89° C | 41% | 1028 hPa | 0 mm | - | - | - |
| 1777623483 | 13.33° C | 42% | 1027.9 hPa | 0 mm | - | - | - |
| 1777622943 | 13.33° C | 42% | 1027.9 hPa | 0 mm | - | - | - |
| 1777622403 | 13.33° C | 43% | 1028 hPa | 0 mm | - | - | - |
| 1777622044 | 13.33° C | 41% | 1027.9 hPa | 0 mm | - | - | - |
| 1777621503 | 13.33° C | 40% | 1027.9 hPa | 0 mm | - | - | - |
| 1777620963 | 12.78° C | 43% | 1027.8 hPa | 0 mm | - | - | - |
| 1777620423 | 12.78° C | 44% | 1027.8 hPa | 0 mm | - | - | - |
| 1777619883 | 11.67° C | 45% | 1027.7 hPa | 0 mm | - | - | - |
| 1777619343 | 11.67° C | 45% | 1027.6 hPa | 0 mm | - | - | - |
| 1777618803 | 12.22° C | 44% | 1028 hPa | 0 mm | - | - | - |
| 1777618443 | 11.67° C | 45% | 1027.7 hPa | 0 mm | - | - | - |
| 1777617903 | 11.67° C | 46% | 1027.7 hPa | 0 mm | - | - | - |
| 1777617363 | 11.67° C | 45% | 1027.5 hPa | 0 mm | - | - | - |
* Rain latest hour (hover to see other rain measurements)
** Current wind speed in m/s (hover to see current wind gust speed)